Time;durP1;ratioP1;P1;durP2;ratioP2;P2;SDS_P1;SDS_P2;PMS_P1;PMS_P2;Temp;Humidity;BMP_temperature;BMP_pressure;BME280_temperature;BME280_humidity;BME280_pressure;Samples;Min_cycle;Max_cycle;Signal;HPM_P1;HPM_P2
2023/05/24 00:01:47;;;;;;;12.65;2.55;;;11.90;73.60;;;;;;5089495;28;20027;-62
2023/05/24 00:04:13;;;;;;;6.47;2.10;;;11.80;73.40;;;;;;5109743;28;20054;-62
2023/05/24 00:06:40;;;;;;;8.18;2.72;;;11.80;73.40;;;;;;5087134;28;20024;-61
2023/05/24 00:09:06;;;;;;;12.30;2.83;;;11.80;73.70;;;;;;5110641;28;20031;-62
2023/05/24 00:11:31;;;;;;;6.38;2.03;;;11.80;73.60;;;;;;5089414;28;20095;-61
2023/05/24 00:13:57;;;;;;;9.65;2.55;;;11.70;73.70;;;;;;5110573;28;20035;-61
2023/05/24 00:16:22;;;;;;;6.22;2.45;;;11.70;74.10;;;;;;5089267;28;20032;-60
2023/05/24 00:18:48;;;;;;;10.52;2.30;;;11.70;74.30;;;;;;5110240;28;20576;-61
2023/05/24 00:21:14;;;;;;;6.60;2.03;;;11.70;74.40;;;;;;5089241;28;20087;-61
2023/05/24 00:23:42;;;;;;;10.23;2.00;;;11.60;74.30;;;;;;5110163;28;20098;-61
2023/05/24 00:26:08;;;;;;;11.40;2.10;;;11.60;74.50;;;;;;5099698;28;20040;-61
2023/05/24 00:28:34;;;;;;;10.77;2.03;;;11.60;74.60;;;;;;5090944;28;20028;-61
2023/05/24 00:31:00;;;;;;;6.70;2.28;;;11.60;74.70;;;;;;5106764;28;20114;-61
2023/05/24 00:33:27;;;;;;;8.50;3.03;;;11.50;74.80;;;;;;5090727;28;20559;-62
2023/05/24 00:35:55;;;;;;;10.23;2.40;;;11.50;74.90;;;;;;5108041;28;20042;-62
2023/05/24 00:38:27;;;;;;;9.48;3.13;;;11.60;75.00;;;;;;5088994;28;20032;-62
2023/05/24 00:40:55;;;;;;;10.18;2.63;;;11.50;74.90;;;;;;5108363;28;20103;-61
2023/05/24 00:43:21;;;;;;;9.32;2.13;;;11.50;74.70;;;;;;5089430;28;20043;-61
2023/05/24 00:45:47;;;;;;;9.98;2.42;;;11.50;74.60;;;;;;5107290;28;20035;-61
2023/05/24 00:48:13;;;;;;;10.55;2.88;;;11.40;74.70;;;;;;5089168;28;20201;-61
2023/05/24 00:50:39;;;;;;;9.30;2.28;;;11.40;74.80;;;;;;5106791;28;20020;-61
2023/05/24 00:53:06;;;;;;;11.20;2.45;;;11.40;74.90;;;;;;5109688;28;20568;-62
2023/05/24 00:55:35;;;;;;;6.78;2.10;;;11.40;75.00;;;;;;5094328;28;20139;-61
2023/05/24 00:58:01;;;;;;;10.52;2.60;;;11.30;74.90;;;;;;5110325;28;20023;-61
2023/05/24 01:00:28;;;;;;;6.50;2.08;;;11.30;74.90;;;;;;5093653;28;20070;-61
2023/05/24 01:02:53;;;;;;;7.50;2.15;;;11.30;75.00;;;;;;5110154;28;20099;-61
2023/05/24 01:05:20;;;;;;;6.93;2.42;;;11.30;75.00;;;;;;5089340;28;20067;-61
2023/05/24 01:08:10;;;;;;;8.90;2.22;;;11.30;75.10;;;;;;5109493;28;20051;-60
2023/05/24 01:11:10;;;;;;;5.57;1.80;;;11.30;75.10;;;;;;5080836;28;20502;-61
2023/05/24 01:13:46;;;;;;;10.98;2.50;;;11.30;75.20;;;;;;5109958;28;20039;-61
2023/05/24 01:16:20;;;;;;;11.13;2.72;;;11.20;74.90;;;;;;5090681;28;20066;-52
2023/05/24 01:19:26;;;;;;;6.18;1.92;;;11.10;75.00;;;;;;5067992;28;20028;-55
2023/05/24 01:22:00;;;;;;;10.43;2.13;;;11.10;75.10;;;;;;5080727;28;20036;-53
2023/05/24 01:24:49;;;;;;;7.82;1.83;;;11.10;75.00;;;;;;5089472;28;20031;-50
2023/05/24 01:27:17;;;;;;;14.40;2.47;;;11.00;75.00;;;;;;5069290;28;20048;-55
2023/05/24 01:29:43;;;;;;;8.80;1.95;;;11.00;75.00;;;;;;5108683;28;20031;-56
2023/05/24 01:32:09;;;;;;;7.03;1.88;;;10.90;75.10;;;;;;5086739;28;20050;-55
2023/05/24 01:34:34;;;;;;;7.93;2.40;;;10.80;75.40;;;;;;5107482;28;20031;-54
2023/05/24 01:37:00;;;;;;;9.65;2.05;;;10.80;75.60;;;;;;5088050;28;20106;-51
2023/05/24 01:39:28;;;;;;;8.38;1.80;;;10.70;75.90;;;;;;5108638;28;20130;-54
2023/05/24 01:42:10;;;;;;;9.25;2.33;;;10.60;76.40;;;;;;5086256;28;20039;-55
2023/05/24 01:44:52;;;;;;;11.23;2.20;;;10.50;76.00;;;;;;5089117;28;20024;-51
2023/05/24 01:47:27;;;;;;;8.30;1.65;;;10.50;76.20;;;;;;5067568;28;20028;-54
2023/05/24 01:49:55;;;;;;;5.33;1.50;;;10.40;76.90;;;;;;5106938;28;20587;-52
2023/05/24 01:52:24;;;;;;;12.00;1.85;;;10.30;77.40;;;;;;5109387;28;20269;-53
2023/05/24 01:54:56;;;;;;;10.35;2.55;;;10.20;77.70;;;;;;5087112;28;20035;-49
2023/05/24 01:57:23;;;;;;;9.13;2.10;;;10.10;77.80;;;;;;5109580;28;20012;-55
2023/05/24 01:59:50;;;;;;;10.85;2.08;;;10.10;77.70;;;;;;5087196;28;20028;-55
2023/05/24 02:02:16;;;;;;;11.57;2.13;;;10.00;78.30;;;;;;5109431;28;20047;-52
2023/05/24 02:04:42;;;;;;;6.85;1.92;;;9.90;78.50;;;;;;5091903;28;20039;-55
2023/05/24 02:07:08;;;;;;;8.32;2.10;;;9.80;78.60;;;;;;5085755;28;20085;-54
2023/05/24 02:09:33;;;;;;;5.85;1.70;;;9.70;79.10;;;;;;5108521;28;20039;-49
2023/05/24 02:11:59;;;;;;;5.53;1.83;;;9.70;79.40;;;;;;5087549;28;20039;-54
2023/05/24 02:14:25;;;;;;;5.82;1.95;;;9.60;79.90;;;;;;5108294;28;20507;-55
2023/05/24 02:16:50;;;;;;;7.72;2.13;;;9.50;80.40;;;;;;5087330;28;20028;-54
2023/05/24 02:19:16;;;;;;;5.93;1.80;;;9.40;80.50;;;;;;5108306;28;20028;-56
2023/05/24 02:21:42;;;;;;;11.65;2.85;;;9.40;81.20;;;;;;5087652;28;20044;-55
2023/05/24 02:24:10;;;;;;;6.55;1.67;;;9.30;81.90;;;;;;5108576;28;20023;-53
2023/05/24 02:26:36;;;;;;;4.63;1.70;;;9.20;82.40;;;;;;5087260;28;20093;-49
2023/05/24 02:29:02;;;;;;;10.43;2.22;;;9.20;83.30;;;;;;5112688;28;20164;-51
2023/05/24 02:31:28;;;;;;;5.88;1.75;;;9.10;84.10;;;;;;5091336;27;20110;-54
2023/05/24 02:33:57;;;;;;;8.40;2.38;;;9.00;83.90;;;;;;5112250;28;20024;-49
2023/05/24 02:36:23;;;;;;;6.47;1.58;;;9.00;84.00;;;;;;5090644;28;20042;-54
2023/05/24 02:38:52;;;;;;;8.88;2.22;;;8.90;84.30;;;;;;5112204;28;20027;-53
2023/05/24 02:41:18;;;;;;;7.93;1.83;;;8.90;84.70;;;;;;5091205;28;20440;-50
2023/05/24 02:43:44;;;;;;;10.65;2.30;;;8.80;85.60;;;;;;5092242;28;20028;-55
2023/05/24 02:46:10;;;;;;;12.77;2.45;;;8.70;85.70;;;;;;5112521;28;20027;-54
2023/05/24 02:48:36;;;;;;;8.38;2.00;;;8.70;85.80;;;;;;5091022;28;20097;-54
2023/05/24 02:51:04;;;;;;;6.70;1.83;;;8.70;87.20;;;;;;5112058;28;20092;-55
2023/05/24 02:53:30;;;;;;;7.88;1.90;;;8.60;87.70;;;;;;5089424;28;20520;-52
2023/05/24 02:55:56;;;;;;;10.57;2.38;;;8.50;87.20;;;;;;5112051;28;20123;-55
2023/05/24 02:58:22;;;;;;;5.95;1.60;;;8.50;87.70;;;;;;5091156;27;20482;-53
2023/05/24 03:00:47;;;;;;;9.50;2.20;;;8.40;88.60;;;;;;5111831;28;20095;-51
2023/05/24 03:03:13;;;;;;;9.50;2.00;;;8.40;88.60;;;;;;5090988;28;20048;-49
2023/05/24 03:05:38;;;;;;;8.27;1.80;;;8.40;90.20;;;;;;5098797;28;20055;-55
2023/05/24 03:08:05;;;;;;;5.70;1.60;;;8.40;90.00;;;;;;5109810;28;20383;-54
2023/05/24 03:10:30;;;;;;;9.77;1.55;;;8.40;90.30;;;;;;5092616;28;20384;-55
2023/05/24 03:12:56;;;;;;;8.90;2.00;;;8.40;90.40;;;;;;5109836;28;20023;-56
2023/05/24 03:15:22;;;;;;;4.93;1.60;;;8.50;91.00;;;;;;5092514;28;20047;-52
2023/05/24 03:17:47;;;;;;;6.72;1.67;;;8.50;91.60;;;;;;5095390;28;20050;-53
2023/05/24 03:20:14;;;;;;;9.82;2.17;;;8.60;91.50;;;;;;5111837;28;20028;-55
2023/05/24 03:22:40;;;;;;;8.60;1.63;;;8.60;91.70;;;;;;5090492;28;20179;-55
2023/05/24 03:25:07;;;;;;;7.63;1.60;;;8.70;91.80;;;;;;5111531;28;20106;-54
2023/05/24 03:27:33;;;;;;;8.38;2.28;;;8.80;91.80;;;;;;5077408;28;20028;-50
2023/05/24 03:29:58;;;;;;;4.95;1.75;;;8.90;91.90;;;;;;5110999;28;20035;-53
2023/05/24 03:32:24;;;;;;;5.68;1.60;;;9.00;91.70;;;;;;5101502;28;20034;-55
2023/05/24 03:34:49;;;;;;;4.13;1.55;;;9.00;91.60;;;;;;5092153;28;20090;-53
2023/05/24 03:37:15;;;;;;;5.30;1.60;;;9.20;91.60;;;;;;5109611;28;20511;-50
2023/05/24 03:39:40;;;;;;;8.32;1.85;;;9.30;91.70;;;;;;5091099;28;20028;-49
2023/05/24 03:42:06;;;;;;;7.07;1.70;;;9.40;91.40;;;;;;5089435;28;20056;-56
2023/05/24 03:44:32;;;;;;;8.77;1.88;;;9.50;91.30;;;;;;5091372;28;20032;-52
2023/05/24 03:46:57;;;;;;;7.97;2.35;;;9.60;91.50;;;;;;5109144;28;20146;-51
2023/05/24 03:49:23;;;;;;;10.05;2.22;;;9.70;91.00;;;;;;5111893;28;20498;-53
2023/05/24 03:51:48;;;;;;;5.10;1.35;;;9.80;90.60;;;;;;5090508;28;20032;-51
2023/05/24 03:54:14;;;;;;;8.40;2.35;;;9.90;90.70;;;;;;5094786;28;20028;-54
2023/05/24 03:56:39;;;;;;;7.10;1.80;;;10.10;90.20;;;;;;5110558;28;20093;-50
2023/05/24 03:59:05;;;;;;;5.80;1.40;;;10.30;89.60;;;;;;5109707;28;20104;-51
2023/05/24 04:01:30;;;;;;;5.95;1.92;;;10.60;88.40;;;;;;5091653;28;20123;-51
2023/05/24 04:03:57;;;;;;;4.65;1.30;;;11.00;86.30;;;;;;5090405;28;20023;-56
2023/05/24 04:06:27;;;;;;;5.95;1.50;;;11.40;83.40;;;;;;5105423;28;20084;-50
2023/05/24 04:08:57;;;;;;;3.28;1.23;;;11.90;81.40;;;;;;5086544;28;20035;-55
2023/05/24 04:11:23;;;;;;;4.78;1.30;;;12.10;80.10;;;;;;5111033;28;20032;-55
2023/05/24 04:13:51;;;;;;;7.55;1.73;;;12.50;78.30;;;;;;5089705;28;20042;-53
2023/05/24 04:16:17;;;;;;;6.40;1.60;;;13.00;74.10;;;;;;5110572;28;20036;-55
2023/05/24 04:18:44;;;;;;;5.50;1.85;;;13.70;72.00;;;;;;5089361;28;20039;-55
2023/05/24 04:21:09;;;;;;;7.03;1.77;;;14.40;68.80;;;;;;5110366;28;20036;-56
2023/05/24 04:23:35;;;;;;;6.45;1.77;;;15.10;66.90;;;;;;5089331;28;20512;-54
2023/05/24 04:26:00;;;;;;;7.18;1.55;;;15.70;64.60;;;;;;5102365;28;20082;-52
2023/05/24 04:28:26;;;;;;;4.97;1.67;;;16.30;61.60;;;;;;5103072;28;20498;-51
2023/05/24 04:30:52;;;;;;;6.07;1.88;;;16.90;59.30;;;;;;5091064;28;20514;-51
2023/05/24 04:33:18;;;;;;;5.90;2.03;;;17.50;57.20;;;;;;5095035;28;20024;-53
2023/05/24 04:35:44;;;;;;;5.65;1.25;;;18.00;55.90;;;;;;5110113;28;20413;-56
2023/05/24 04:38:11;;;;;;;4.10;1.80;;;18.40;54.40;;;;;;5089336;28;20107;-54
2023/05/24 04:40:37;;;;;;;5.47;1.83;;;18.60;52.30;;;;;;5108790;28;20030;-52
2023/05/24 04:43:03;;;;;;;5.68;2.13;;;18.90;49.30;;;;;;5099759;28;20027;-54
2023/05/24 04:45:29;;;;;;;6.72;1.65;;;19.20;47.60;;;;;;5090796;28;20047;-51
2023/05/24 04:47:55;;;;;;;7.97;2.25;;;19.50;46.60;;;;;;5108185;28;20031;-48
2023/05/24 04:50:20;;;;;;;4.43;1.58;;;19.90;45.60;;;;;;5090539;28;20023;-54
2023/05/24 04:52:46;;;;;;;6.03;2.20;;;20.50;44.30;;;;;;5107934;28;20031;-51
2023/05/24 04:55:11;;;;;;;8.05;2.08;;;20.90;40.10;;;;;;5090781;28;20111;-52
2023/05/24 04:57:37;;;;;;;5.20;2.00;;;21.20;39.00;;;;;;5107876;28;20479;-52
2023/05/24 05:00:03;;;;;;;5.85;2.08;;;21.40;37.20;;;;;;5087642;28;20036;-57
2023/05/24 05:02:29;;;;;;;7.93;2.10;;;21.10;37.10;;;;;;5085290;28;20036;-52
2023/05/24 05:04:55;;;;;;;5.28;2.10;;;20.90;37.60;;;;;;5092615;28;20387;-53
2023/05/24 05:07:21;;;;;;;4.78;1.58;;;21.40;36.60;;;;;;5078540;28;20025;-55
2023/05/24 05:09:46;;;;;;;5.07;1.45;;;21.80;35.40;;;;;;5106584;28;20442;-50
2023/05/24 05:12:13;;;;;;;6.47;1.70;;;22.40;34.20;;;;;;5072426;28;20036;-53
2023/05/24 05:14:38;;;;;;;3.40;1.80;;;22.70;31.40;;;;;;5099866;28;20804;-54
2023/05/24 05:17:04;;;;;;;5.55;1.90;;;23.10;29.70;;;;;;5092873;28;20103;-52
2023/05/24 05:19:30;;;;;;;5.95;1.98;;;23.20;29.00;;;;;;5095966;28;20027;-53
2023/05/24 05:21:55;;;;;;;6.82;1.95;;;22.60;28.60;;;;;;5082451;28;20077;-55
2023/05/24 05:24:21;;;;;;;4.55;1.80;;;21.80;25.50;;;;;;5087369;28;20058;-52
2023/05/24 05:26:46;;;;;;;4.78;1.98;;;21.50;26.90;;;;;;5086020;28;20512;-53
2023/05/24 05:29:12;;;;;;;4.85;1.80;;;21.40;27.20;;;;;;5080092;28;20085;-55
2023/05/24 05:31:38;;;;;;;4.55;1.63;;;21.60;26.40;;;;;;5096912;28;20127;-54
2023/05/24 05:34:04;;;;;;;5.38;2.13;;;22.30;26.00;;;;;;5094986;28;20032;-53
2023/05/24 05:36:29;;;;;;;4.55;1.98;;;23.30;25.30;;;;;;5101840;28;20016;-55
2023/05/24 05:38:55;;;;;;;5.35;1.77;;;24.00;22.80;;;;;;5083340;28;20037;-49
2023/05/24 05:41:21;;;;;;;5.82;2.10;;;24.20;20.40;;;;;;5073749;28;20028;-51
2023/05/24 05:43:46;;;;;;;4.90;2.15;;;23.20;19.40;;;;;;5094498;28;20016;-48
2023/05/24 05:46:14;;;;;;;7.75;1.80;;;22.40;21.40;;;;;;5085053;28;20028;-49
2023/05/24 05:48:40;;;;;;;4.97;2.00;;;21.70;22.30;;;;;;5106701;28;20024;-50
2023/05/24 05:51:06;;;;;;;8.45;2.30;;;21.30;22.30;;;;;;5086277;28;20519;-48
2023/05/24 05:53:35;;;;;;;5.78;2.20;;;22.00;21.80;;;;;;5107582;28;20059;-51
2023/05/24 05:56:00;;;;;;;4.18;1.70;;;22.00;21.10;;;;;;5086369;28;20338;-49
2023/05/24 05:58:25;;;;;;;6.18;2.15;;;23.00;20.00;;;;;;5106024;28;20433;-51
2023/05/24 06:00:51;;;;;;;4.60;1.80;;;23.30;19.70;;;;;;5086468;28;20149;-52
2023/05/24 06:03:16;;;;;;;5.68;1.90;;;23.20;19.30;;;;;;5106658;28;20399;-48
2023/05/24 06:05:42;;;;;;;6.70;2.10;;;23.30;18.60;;;;;;5094557;28;20035;-49
2023/05/24 06:08:07;;;;;;;3.50;1.80;;;23.80;18.40;;;;;;5088313;28;20047;-51
2023/05/24 06:10:33;;;;;;;5.55;1.80;;;24.80;16.90;;;;;;5093501;28;20453;-52
2023/05/24 06:13:01;;;;;;;5.88;1.83;;;25.70;16.20;;;;;;5107063;28;20115;-51
2023/05/24 06:15:27;;;;;;;4.25;1.67;;;25.80;15.20;;;;;;5096588;28;20092;-50
2023/05/24 06:17:53;;;;;;;3.42;1.63;;;25.40;15.00;;;;;;5088032;28;20032;-50
2023/05/24 06:20:19;;;;;;;5.55;1.80;;;24.60;15.20;;;;;;5105440;28;20077;-49
2023/05/24 06:22:45;;;;;;;6.43;2.13;;;24.00;15.50;;;;;;5088049;28;20476;-50
2023/05/24 06:25:13;;;;;;;5.07;1.58;;;23.20;16.10;;;;;;5104670;28;20034;-51
2023/05/24 06:27:39;;;;;;;4.63;1.88;;;22.60;16.80;;;;;;5107932;28;20024;-47
2023/05/24 06:30:05;;;;;;;4.93;2.13;;;22.40;17.10;;;;;;5091747;28;20452;-48
2023/05/24 06:32:31;;;;;;;7.97;2.65;;;22.80;16.30;;;;;;5086662;28;20038;-53
2023/05/24 06:34:56;;;;;;;6.75;1.77;;;22.50;16.20;;;;;;5105245;28;20115;-49
2023/05/24 06:37:24;;;;;;;8.30;2.22;;;23.10;16.20;;;;;;5107686;28;20104;-47
2023/05/24 06:39:50;;;;;;;6.60;2.47;;;24.50;14.90;;;;;;5091063;28;20091;-49
2023/05/24 06:42:16;;;;;;;5.40;1.83;;;25.90;13.20;;;;;;5107729;28;20426;-47
2023/05/24 06:44:41;;;;;;;8.25;2.20;;;26.90;11.90;;;;;;5090257;28;20036;-48
2023/05/24 06:47:08;;;;;;;5.95;2.20;;;27.80;11.10;;;;;;5089246;28;20165;-52
2023/05/24 06:49:33;;;;;;;6.15;2.10;;;28.30;10.00;;;;;;5088482;28;20020;-52
2023/05/24 06:52:02;;;;;;;7.95;2.13;;;28.40;9.40;;;;;;5107767;28;20030;-49
2023/05/24 06:54:28;;;;;;;6.68;2.10;;;28.90;8.70;;;;;;5087966;28;20032;-49
2023/05/24 06:56:54;;;;;;;5.95;2.20;;;29.00;7.80;;;;;;5107685;28;20307;-50
2023/05/24 06:59:20;;;;;;;5.53;2.05;;;29.80;7.30;;;;;;5091695;28;20503;-50
2023/05/24 07:01:45;;;;;;;7.65;2.42;;;30.40;6.20;;;;;;5107500;28;20036;-50
2023/05/24 07:04:11;;;;;;;3.80;1.80;;;30.60;5.00;;;;;;5090546;28;20460;-52
2023/05/24 07:06:36;;;;;;;5.60;2.05;;;31.30;4.90;;;;;;5087789;28;20114;-49
2023/05/24 07:09:03;;;;;;;4.93;1.90;;;31.90;4.10;;;;;;5106934;28;20028;-50
2023/05/24 07:11:29;;;;;;;6.13;2.30;;;32.70;3.50;;;;;;5095027;28;20025;-51
2023/05/24 07:13:55;;;;;;;14.55;2.50;;;32.40;3.20;;;;;;5089467;28;20050;-48
2023/05/24 07:16:20;;;;;;;5.40;2.15;;;31.80;1.00;;;;;;5108584;28;20483;-61
2023/05/24 07:18:46;;;;;;;7.20;2.20;;;30.30;3.10;;;;;;5095569;28;20059;-48
2023/05/24 07:21:11;;;;;;;6.82;2.28;;;28.90;4.10;;;;;;5101077;28;20032;-46
2023/05/24 07:23:37;;;;;;;6.95;2.35;;;27.90;4.80;;;;;;5110270;28;20063;-47
2023/05/24 07:26:03;;;;;;;7.22;2.78;;;27.80;4.60;;;;;;5089759;28;20486;-48
2023/05/24 07:28:29;;;;;;;5.15;2.10;;;28.40;4.20;;;;;;5110153;28;20067;-53
2023/05/24 07:30:54;;;;;;;6.68;2.33;;;27.80;4.10;;;;;;5093308;28;20044;-49
2023/05/24 07:33:20;;;;;;;3.80;2.15;;;26.80;4.60;;;;;;5110946;28;20037;-49
2023/05/24 07:35:50;;;;;;;6.70;2.10;;;25.80;5.20;;;;;;5092833;28;20024;-51
2023/05/24 07:38:16;;;;;;;9.27;2.65;;;25.00;5.80;;;;;;5110714;28;20284;-49
2023/05/24 07:40:42;;;;;;;8.55;2.63;;;24.50;6.20;;;;;;5091558;28;20024;-48
2023/05/24 07:43:07;;;;;;;7.57;2.83;;;24.20;6.40;;;;;;5107388;28;20020;-49
2023/05/24 07:45:32;;;;;;;7.78;2.80;;;24.00;6.60;;;;;;5089266;28;20517;-49
2023/05/24 07:47:58;;;;;;;5.47;2.13;;;24.40;6.30;;;;;;5110590;28;20055;-49
2023/05/24 07:50:24;;;;;;;5.75;2.20;;;24.60;6.10;;;;;;5090825;28;20021;-51
2023/05/24 07:52:50;;;;;;;7.63;2.97;;;24.40;6.10;;;;;;5088134;28;20547;-49
2023/05/24 07:55:15;;;;;;;8.57;2.17;;;24.10;6.30;;;;;;5109830;28;20101;-47
2023/05/24 07:57:41;;;;;;;7.10;2.17;;;23.80;6.80;;;;;;5088672;28;20024;-47
2023/05/24 08:00:13;;;;;;;8.77;2.80;;;23.50;7.40;;;;;;5108362;28;20512;-49
2023/05/24 08:02:41;;;;;;;7.38;2.33;;;22.90;6.90;;;;;;5085690;28;20036;-48
2023/05/24 08:05:09;;;;;;;6.75;2.45;;;22.30;8.00;;;;;;5099763;28;20035;-51
2023/05/24 08:07:34;;;;;;;7.35;2.42;;;22.00;8.40;;;;;;5105510;28;20522;-48
2023/05/24 08:10:00;;;;;;;11.65;3.10;;;21.60;9.30;;;;;;5090166;28;20036;-51
2023/05/24 08:12:29;;;;;;;5.00;1.85;;;21.50;8.90;;;;;;5091416;28;20411;-50
2023/05/24 08:14:54;;;;;;;6.03;2.08;;;21.50;8.90;;;;;;5109449;28;20127;-52
2023/05/24 08:17:20;;;;;;;10.82;3.30;;;21.50;9.10;;;;;;5088135;28;20536;-54
2023/05/24 08:19:45;;;;;;;4.88;2.03;;;21.30;9.40;;;;;;5109022;28;20122;-48
2023/05/24 08:22:11;;;;;;;8.05;2.83;;;21.20;9.60;;;;;;5088340;28;20070;-51
2023/05/24 08:24:37;;;;;;;8.25;2.72;;;21.10;9.50;;;;;;5108424;28;20028;-47
2023/05/24 08:27:03;;;;;;;6.55;2.30;;;21.00;9.60;;;;;;5087902;28;20063;-49
2023/05/24 08:29:29;;;;;;;8.10;2.50;;;20.70;9.90;;;;;;5108926;28;20027;-53
2023/05/24 08:31:54;;;;;;;8.18;2.63;;;20.30;10.50;;;;;;5088263;28;20510;-51
2023/05/24 08:34:20;;;;;;;7.85;2.72;;;20.10;11.10;;;;;;5108779;28;20036;-49
2023/05/24 08:36:46;;;;;;;11.52;2.50;;;20.00;11.10;;;;;;5098292;28;20038;-52
2023/05/24 08:39:11;;;;;;;9.63;2.95;;;19.80;11.80;;;;;;5089750;28;20403;-49
2023/05/24 08:41:37;;;;;;;7.50;2.70;;;19.60;11.60;;;;;;5106634;28;20022;-48
2023/05/24 08:44:06;;;;;;;6.78;2.70;;;19.60;11.40;;;;;;5089550;28;20107;-49
2023/05/24 08:46:36;;;;;;;4.38;1.80;;;19.70;11.40;;;;;;5107076;28;20036;-52
2023/05/24 08:49:02;;;;;;;6.25;3.03;;;19.80;11.20;;;;;;5089400;28;20047;-48
2023/05/24 08:51:29;;;;;;;8.07;2.08;;;19.80;11.60;;;;;;5106481;28;20088;-53
2023/05/24 08:53:57;;;;;;;10.13;2.30;;;19.90;10.80;;;;;;5089469;28;20035;-50
2023/05/24 08:56:25;;;;;;;3.88;1.77;;;20.10;10.70;;;;;;5107000;28;20024;-47
2023/05/24 08:58:52;;;;;;;5.95;1.70;;;20.20;11.20;;;;;;5109227;28;20031;-49
2023/05/24 09:01:17;;;;;;;6.05;2.42;;;20.20;10.50;;;;;;5093813;28;20072;-47
2023/05/24 09:03:45;;;;;;;7.05;2.75;;;20.10;10.80;;;;;;5108786;28;20035;-48
2023/05/24 09:06:12;;;;;;;5.75;2.17;;;20.00;11.50;;;;;;5086598;28;20012;-51
2023/05/24 09:08:39;;;;;;;5.75;2.08;;;19.90;11.30;;;;;;5108888;28;20365;-45
2023/05/24 09:11:07;;;;;;;7.63;2.20;;;19.70;11.60;;;;;;5091744;28;20193;-51
2023/05/24 09:13:33;;;;;;;5.68;1.92;;;19.50;11.70;;;;;;5108878;28;20039;-49
2023/05/24 09:16:00;;;;;;;5.32;2.35;;;19.40;12.00;;;;;;5090630;28;20503;-49
2023/05/24 09:18:25;;;;;;;8.30;2.75;;;19.40;12.00;;;;;;5107413;28;20399;-50
2023/05/24 09:20:51;;;;;;;6.47;2.35;;;19.30;12.20;;;;;;5089907;28;20173;-50
2023/05/24 09:23:17;;;;;;;5.68;1.95;;;19.20;12.30;;;;;;5108634;28;20028;-49
2023/05/24 09:25:44;;;;;;;9.30;2.90;;;19.20;12.20;;;;;;5090055;28;20043;-52
2023/05/24 09:28:16;;;;;;;5.78;2.00;;;19.30;12.20;;;;;;5088022;28;20496;-50
2023/05/24 09:30:43;;;;;;;4.80;1.90;;;19.30;12.20;;;;;;5069830;28;20029;-47
2023/05/24 09:33:10;;;;;;;6.90;2.30;;;19.50;12.20;;;;;;5108690;28;20376;-47
2023/05/24 09:35:35;;;;;;;6.60;2.17;;;19.80;12.10;;;;;;5087268;28;20039;-49
2023/05/24 09:38:02;;;;;;;5.13;1.75;;;20.10;11.80;;;;;;5107580;28;20030;-48
2023/05/24 09:40:28;;;;;;;4.82;2.00;;;20.30;11.60;;;;;;5088117;28;20028;-54
2023/05/24 09:43:07;;;;;;;6.45;2.15;;;20.50;11.40;;;;;;5095753;28;20023;-52
2023/05/24 09:45:40;;;;;;;4.47;2.50;;;20.70;11.00;;;;;;5088097;28;20066;-51
2023/05/24 09:48:09;;;;;;;6.43;2.15;;;20.90;11.00;;;;;;5088453;28;20039;-49
2023/05/24 09:50:35;;;;;;;5.50;1.90;;;21.10;10.30;;;;;;5087972;28;20115;-48
2023/05/24 09:53:02;;;;;;;4.82;1.80;;;21.10;10.50;;;;;;5105417;28;20118;-48
2023/05/24 09:55:28;;;;;;;5.55;2.08;;;21.30;10.20;;;;;;5088193;28;20032;-49
2023/05/24 09:58:04;;;;;;;9.88;3.00;;;21.30;8.80;;;;;;5105785;28;20053;-49
2023/05/24 10:00:40;;;;;;;5.07;1.90;;;20.60;10.60;;;;;;5088264;28;20028;-51
2023/05/24 10:03:10;;;;;;;7.60;2.63;;;20.40;11.10;;;;;;5088225;28;20024;-50
2023/05/24 10:05:37;;;;;;;6.88;2.33;;;20.30;11.70;;;;;;5080083;28;20078;-53
2023/05/24 10:08:07;;;;;;;5.57;2.15;;;20.20;11.80;;;;;;5097162;28;20107;-51
2023/05/24 10:10:33;;;;;;;6.63;2.25;;;20.20;11.90;;;;;;5067778;28;20436;-47
2023/05/24 10:13:00;;;;;;;7.53;2.25;;;20.30;11.80;;;;;;5105070;28;20080;-50
2023/05/24 10:15:26;;;;;;;7.13;2.28;;;20.30;11.70;;;;;;5088125;28;20050;-48
2023/05/24 10:17:53;;;;;;;5.72;2.13;;;20.30;11.80;;;;;;5105368;28;20123;-51
2023/05/24 10:20:18;;;;;;;5.95;2.08;;;20.30;11.80;;;;;;5088086;28;20043;-47
2023/05/24 10:22:46;;;;;;;6.72;2.20;;;20.30;11.80;;;;;;5105288;28;20601;-48
2023/05/24 10:25:19;;;;;;;9.73;2.10;;;20.30;11.80;;;;;;5088510;28;20445;-49
2023/05/24 10:27:46;;;;;;;7.05;2.30;;;20.40;11.70;;;;;;5106185;28;20031;-50
2023/05/24 10:30:40;;;;;;;7.22;2.10;;;20.50;11.50;;;;;;5087898;28;20047;-48
2023/05/24 10:33:07;;;;;;;9.07;2.35;;;20.80;11.30;;;;;;5063125;28;20036;-48
2023/05/24 10:35:35;;;;;;;7.82;2.20;;;20.90;11.20;;;;;;5107369;28;20539;-51
2023/05/24 10:38:06;;;;;;;6.38;2.35;;;21.00;11.20;;;;;;5096515;28;20045;-48
2023/05/24 10:40:32;;;;;;;4.13;2.00;;;21.10;11.00;;;;;;5067604;28;20085;-49
2023/05/24 10:42:58;;;;;;;5.85;2.13;;;21.10;11.10;;;;;;5104551;28;20059;-47
2023/05/24 10:45:26;;;;;;;6.30;2.30;;;21.10;11.10;;;;;;5088012;28;20074;-50
2023/05/24 10:47:53;;;;;;;7.50;2.90;;;21.10;11.30;;;;;;5102202;28;20035;-46
2023/05/24 10:50:20;;;;;;;4.60;2.10;;;21.10;11.00;;;;;;5091526;28;20013;-50
2023/05/24 10:52:48;;;;;;;5.38;2.42;;;20.90;11.10;;;;;;5109202;28;20042;-50
2023/05/24 10:55:14;;;;;;;6.43;2.35;;;20.90;11.10;;;;;;5111426;28;20372;-47
2023/05/24 10:57:40;;;;;;;5.90;2.40;;;20.90;11.30;;;;;;5090693;28;20039;-46
2023/05/24 11:00:27;;;;;;;6.82;2.17;;;20.90;11.00;;;;;;5091232;28;20039;-49
2023/05/24 11:03:09;;;;;;;5.97;2.20;;;21.00;11.60;;;;;;5072733;28;20035;-46
2023/05/24 11:05:51;;;;;;;9.18;2.75;;;21.10;10.80;;;;;;5094560;28;20097;-52
2023/05/24 11:08:28;;;;;;;8.32;2.25;;;21.00;10.80;;;;;;5103673;28;20051;-48
2023/05/24 11:11:10;;;;;;;7.32;2.58;;;20.90;11.10;;;;;;5111452;28;20024;-48
2023/05/24 11:13:36;;;;;;;5.57;2.72;;;20.80;10.90;;;;;;5084414;28;20115;-48
2023/05/24 11:16:02;;;;;;;8.05;2.20;;;20.80;11.20;;;;;;5110383;28;20696;-47
2023/05/24 11:18:27;;;;;;;6.75;2.10;;;20.80;11.30;;;;;;5092581;28;20024;-46
2023/05/24 11:20:55;;;;;;;4.53;2.03;;;21.00;11.30;;;;;;5097994;28;20032;-50
2023/05/24 11:23:20;;;;;;;7.47;2.70;;;21.00;11.40;;;;;;5111721;28;20019;-47
2023/05/24 11:25:47;;;;;;;8.63;2.58;;;21.10;11.30;;;;;;5094697;28;20527;-50
2023/05/24 11:28:13;;;;;;;8.68;2.20;;;21.10;11.30;;;;;;5111288;28;20031;-50
2023/05/24 11:30:43;;;;;;;6.50;2.35;;;21.10;11.20;;;;;;5093413;28;20375;-47
2023/05/24 11:33:22;;;;;;;7.97;2.47;;;21.00;11.00;;;;;;5111911;28;20494;-49
2023/05/24 11:35:53;;;;;;;9.70;3.17;;;20.90;11.30;;;;;;5094382;28;20181;-47
2023/05/24 11:38:20;;;;;;;6.22;2.30;;;20.50;10.90;;;;;;5111695;28;20047;-51
2023/05/24 11:40:48;;;;;;;6.10;2.58;;;20.10;11.50;;;;;;5093887;28;20103;-50
2023/05/24 11:43:16;;;;;;;4.57;1.85;;;20.10;11.70;;;;;;5111843;28;20467;-49
2023/05/24 11:45:47;;;;;;;6.80;2.20;;;20.10;11.40;;;;;;5093253;28;20015;-50
2023/05/24 11:48:13;;;;;;;5.35;2.33;;;20.00;11.50;;;;;;5111691;28;20023;-46
2023/05/24 11:50:41;;;;;;;5.40;2.40;;;20.00;11.90;;;;;;5092991;28;20058;-49
2023/05/24 11:53:14;;;;;;;7.90;2.40;;;19.90;11.30;;;;;;5111628;28;20020;-46
2023/05/24 11:55:41;;;;;;;8.48;2.92;;;20.00;11.70;;;;;;5092850;28;20046;-45
2023/05/24 11:58:21;;;;;;;6.15;2.60;;;19.90;12.30;;;;;;5111552;28;20087;-50
2023/05/24 12:00:47;;;;;;;7.82;2.47;;;20.00;12.70;;;;;;5076809;28;20024;-48
2023/05/24 12:03:13;;;;;;;8.80;2.10;;;20.00;12.70;;;;;;5111249;28;20395;-47
2023/05/24 12:05:38;;;;;;;7.47;2.47;;;20.10;12.60;;;;;;5093384;28;20035;-46
2023/05/24 12:08:11;;;;;;;10.07;2.60;;;20.20;12.50;;;;;;5090904;28;20028;-51
2023/05/24 12:10:38;;;;;;;10.40;2.83;;;20.20;13.00;;;;;;5108867;28;20026;-46
2023/05/24 12:13:16;;;;;;;9.00;2.17;;;19.90;12.70;;;;;;5111263;28;20128;-50
2023/05/24 12:15:42;;;;;;;5.75;2.67;;;19.70;12.80;;;;;;5076014;28;20043;-49
2023/05/24 12:18:18;;;;;;;10.02;2.63;;;19.60;12.70;;;;;;5111267;28;20023;-46
2023/05/24 12:20:45;;;;;;;6.32;2.40;;;19.40;13.10;;;;;;5076443;28;20157;-50
2023/05/24 12:23:11;;;;;;;4.55;1.98;;;19.20;13.00;;;;;;5111071;28;20024;-52
2023/05/24 12:25:37;;;;;;;6.10;2.40;;;19.20;13.00;;;;;;5089655;28;20527;-47
2023/05/24 12:28:02;;;;;;;5.57;2.53;;;19.10;13.30;;;;;;5091189;28;20040;-51
2023/05/24 12:30:30;;;;;;;8.40;3.20;;;18.90;13.00;;;;;;5072669;28;20028;-47
2023/05/24 12:32:56;;;;;;;9.82;3.47;;;18.50;13.10;;;;;;5105813;28;20035;-47
2023/05/24 12:35:22;;;;;;;5.80;2.67;;;18.10;13.90;;;;;;5109780;28;20077;-47
2023/05/24 12:37:48;;;;;;;5.35;2.47;;;18.00;14.00;;;;;;5092516;28;20394;-51
2023/05/24 12:40:19;;;;;;;5.65;2.28;;;18.10;14.00;;;;;;5110651;28;20111;-46
2023/05/24 12:42:58;;;;;;;10.00;3.30;;;18.20;14.30;;;;;;5074553;28;20368;-50
2023/05/24 12:45:27;;;;;;;11.13;3.15;;;18.00;14.50;;;;;;5110402;28;20038;-49
2023/05/24 12:47:53;;;;;;;5.68;2.30;;;17.80;14.60;;;;;;5092533;28;20032;-48
2023/05/24 12:50:20;;;;;;;4.88;2.65;;;17.90;14.90;;;;;;5108938;28;20513;-52